Change the Weather History Date:

Saturday, January 12, 2013

  Actual Average (KOFK) Record (KOFK)
Temperature  
Mean Temperature 14 °F 22 °F  
Max Temperature 21 °F 33 °F 63 °F (1928)
Min Temperature 8 °F 12 °F -39 °F (1912)
Degree Days  
Heating Degree Days 50 43  
Month to date heating degree days 516  
Since 1 July heating degree days 3222  
Cooling Degree Days 0 0  
Month to date cooling degree days 0  
Year to date cooling degree days 0  
Moisture  
Dew Point 7 °F    
Average Humidity 72    
Maximum Humidity 81    
Minimum Humidity 63    
Precipitation  
Precipitation 0.00 in 0.02 in 0.30 in (1910)
Month to date precipitation 0.22  
Year to date precipitation 0.22  
Snow  
Snow 0.00 in 0.20 in - ()
Month to date snowfall 2.3  
Since 1 July snowfall 13.2  
Snow Depth -    
Sea Level Pressure  
Sea Level Pressure 30.00 in    
Wind  
Wind Speed 19 mph (NW)    
Max Wind Speed 26 mph    
Max Gust Speed 37 mph    
Visibility 10 miles    
Events Snow    
T = Trace of Precipitation, MM = Missing Value Source: NWS Daily Summary

Daily Weather History Graph

Daily Weather History Graph

Search for Another Location

Airport or City:

Trip Planner

Search our weather history database for the weather conditions in past years. The results will help you decide how hot, cold, wet, or windy it might be!

Date:

Astronomy

Jan. 12, 2013 Rise Set
Actual Time 7:55 AM CST 5:17 PM CST
Civil Twilight 7:24 AM CST 5:49 PM CST
Nautical Twilight 6:49 AM CST 6:23 PM CST
Astronomical Twilight 6:15 AM CST 6:57 PM CST
Moon 8:13 AM CST (1/12) 6:50 PM CST (1/12)
Length of Visible Light 10h 24m
Length of Day
9h 22m
New Moon, 1% of the Moon is Illuminated
Jan 12
New Moon
Jan 18
First Quarter
Jan 26
Full
Feb 3
Last Quarter
Feb 10
New

Hourly Weather History & Observations

Time (CST) Temp. Windchill Dew Point Humidity Pressure Visibility Wind Dir Wind Speed Gust Speed Precip Events Conditions
12:15 AM 21.0 °F 3.6 °F 13.6 °F 73% 29.73 in 10.0 mi WNW 26.5 mph 34.5 mph N/A   Mostly Cloudy
12:35 AM 20.8 °F 3.7 °F 14.5 °F 77% 29.74 in 7.0 mi West 25.3 mph 31.1 mph N/A Snow Light Snow
12:55 AM 20.1 °F 4.2 °F 13.1 °F 74% 29.76 in 10.0 mi WNW 20.7 mph 28.8 mph N/A Snow Light Snow
1:15 AM 19.8 °F 2.9 °F 12.2 °F 72% 29.77 in 10.0 mi WNW 23.0 mph 31.1 mph N/A   Mostly Cloudy
1:35 AM 19.8 °F 1.9 °F 11.3 °F 70% 29.79 in 10.0 mi WNW 26.5 mph 36.8 mph N/A   Scattered Clouds
1:55 AM 19.2 °F 3.4 °F 11.3 °F 71% 29.81 in 10.0 mi WNW 19.6 mph 32.2 mph N/A   Scattered Clouds
2:15 AM 18.9 °F 3.8 °F 11.8 °F 74% 29.81 in 10.0 mi WNW 17.3 mph 33.4 mph N/A   Scattered Clouds
2:35 AM 19.0 °F 2.4 °F 12.9 °F 77% 29.83 in 10.0 mi WNW 21.9 mph 29.9 mph N/A   Mostly Cloudy
2:55 AM 19.4 °F 2.8 °F 12.4 °F 74% 29.83 in 10.0 mi WNW 21.9 mph 31.1 mph N/A   Mostly Cloudy
3:15 AM 19.0 °F 3.2 °F 11.7 °F 73% 29.85 in 10.0 mi WNW 19.6 mph 29.9 mph N/A   Scattered Clouds
3:35 AM 18.5 °F 1.3 °F 10.2 °F 70% 29.85 in 10.0 mi WNW 23.0 mph 32.2 mph N/A   Clear
3:55 AM 18.3 °F 1.4 °F 11.3 °F 74% 29.86 in 10.0 mi WNW 21.9 mph 28.8 mph N/A Snow Light Snow
4:15 AM 17.6 °F 1.7 °F 10.9 °F 75% 29.86 in 10.0 mi WNW 18.4 mph 25.3 mph N/A   Clear
4:35 AM 16.7 °F -1.8 °F 8.8 °F 71% 29.88 in 10.0 mi WNW 25.3 mph 33.4 mph N/A   Clear
4:55 AM 16.5 °F 0.8 °F 9.0 °F 72% 29.90 in 10.0 mi WNW 17.3 mph 23.0 mph N/A   Clear
5:15 AM 15.8 °F -2.3 °F 8.1 °F 72% 29.90 in 10.0 mi WNW 23.0 mph 31.1 mph N/A   Clear
5:35 AM 15.6 °F 0.6 °F 7.9 °F 72% 29.91 in 10.0 mi WNW 15.0 mph 21.9 mph N/A   Clear
5:55 AM 15.4 °F 0.4 °F 7.7 °F 71% 29.91 in 10.0 mi WNW 15.0 mph 26.5 mph N/A   Clear
6:15 AM 15.1 °F 1.1 °F 8.1 °F 74% 29.93 in 10.0 mi WNW 12.7 mph - N/A   Clear
6:35 AM 14.9 °F -0.3 °F 7.5 °F 73% 29.95 in 10.0 mi West 15.0 mph - N/A   Clear
6:55 AM 14.5 °F -3.2 °F 6.8 °F 71% 29.94 in 10.0 mi WNW 20.7 mph 24.2 mph N/A   Clear
7:15 AM 14.4 °F -0.4 °F 6.3 °F 70% 29.96 in 10.0 mi WNW 13.8 mph - N/A   Clear
7:35 AM 14.0 °F -1.4 °F 6.8 °F 73% 29.98 in 10.0 mi West 15.0 mph 19.6 mph N/A   Clear
7:55 AM 14.0 °F 0.5 °F 7.2 °F 74% 30.00 in 10.0 mi West 11.5 mph 16.1 mph N/A   Clear
8:15 AM 13.6 °F -2.4 °F 6.8 °F 74% 29.99 in 10.0 mi WNW 16.1 mph 20.7 mph N/A   Clear
8:35 AM 14.0 °F -4.7 °F 6.1 °F 71% 29.98 in 10.0 mi WNW 23.0 mph 28.8 mph N/A   Clear
8:55 AM 14.4 °F -2.5 °F 6.1 °F 70% 29.99 in 10.0 mi WNW 18.4 mph 24.2 mph N/A   Clear
9:15 AM 14.5 °F -1.8 °F 5.9 °F 69% 30.02 in 10.0 mi WNW 17.3 mph 24.2 mph N/A   Clear
9:35 AM 14.9 °F -1.8 °F 6.1 °F 68% 30.01 in 10.0 mi WNW 18.4 mph 25.3 mph N/A   Clear
9:55 AM 15.4 °F -1.6 °F 6.4 °F 68% 30.03 in 10.0 mi WNW 19.6 mph 25.3 mph N/A   Scattered Clouds
10:15 AM 15.4 °F -1.1 °F 6.1 °F 67% 30.04 in 10.0 mi WNW 18.4 mph 24.2 mph N/A   Scattered Clouds
10:35 AM 15.8 °F 0.9 °F 6.6 °F 67% 30.06 in 10.0 mi NW 15.0 mph 23.0 mph N/A   Scattered Clouds
10:55 AM 15.8 °F -0.2 °F 6.4 °F 67% 30.07 in 10.0 mi WNW 17.3 mph 20.7 mph N/A   Mostly Cloudy
11:15 AM 16.3 °F 1.0 °F 7.0 °F 67% 30.06 in 10.0 mi WNW 16.1 mph 23.0 mph N/A   Overcast
11:55 AM 16.9 °F 2.3 °F 6.4 °F 64% 30.06 in 10.0 mi West 15.0 mph - N/A   Mostly Cloudy
12:15 PM 16.5 °F 1.8 °F 6.1 °F 64% 30.06 in 10.0 mi NW 15.0 mph 23.0 mph N/A   Overcast
12:35 PM 16.5 °F 1.3 °F 6.8 °F 66% 30.06 in 7.0 mi WNW 16.1 mph 19.6 mph N/A   Overcast
12:55 PM 16.2 °F 1.3 °F 8.2 °F 71% 30.04 in 5.0 mi NW 15.0 mph 19.6 mph N/A   Haze
1:35 PM 16.7 °F 2.0 °F 6.1 °F 63% 30.03 in 10.0 mi WNW 15.0 mph - N/A   Overcast
1:55 PM 16.2 °F 1.3 °F 9.1 °F 74% 30.01 in 3.0 mi NW 15.0 mph - N/A Snow Light Snow
2:15 PM 15.8 °F 2.1 °F 9.0 °F 74% 30.05 in 4.0 mi NW 12.7 mph - N/A Snow Light Snow
2:35 PM 16.3 °F 3.4 °F 9.1 °F 73% 30.06 in 7.0 mi NW 11.5 mph - N/A   Overcast
2:55 PM 16.2 °F 1.9 °F 7.3 °F 68% 30.06 in 7.0 mi NW 13.8 mph - N/A   Overcast
3:15 PM 16.2 °F -0.2 °F 5.9 °F 64% 30.05 in 10.0 mi WNW 18.4 mph 21.9 mph N/A   Mostly Cloudy
3:35 PM 16.3 °F 0.5 °F 6.3 °F 65% 30.06 in 10.0 mi NW 17.3 mph 23.0 mph N/A   Scattered Clouds
3:55 PM 15.3 °F 1.4 °F 7.5 °F 71% 30.06 in 10.0 mi NW 12.7 mph 20.7 mph N/A   Scattered Clouds
4:15 PM 14.9 °F -1.3 °F 7.2 °F 71% 30.06 in 10.0 mi NW 17.3 mph - N/A   Clear
4:35 PM 14.9 °F -0.3 °F 6.8 °F 70% 30.06 in 10.0 mi NW 15.0 mph 20.7 mph N/A   Clear
4:55 PM 14.4 °F -2.0 °F 5.5 °F 68% 30.05 in 10.0 mi NW 17.3 mph 24.2 mph N/A   Scattered Clouds
5:15 PM 13.6 °F -3.0 °F 5.0 °F 68% 30.07 in 10.0 mi NW 17.3 mph 24.2 mph N/A   Clear
5:35 PM 13.6 °F -1.3 °F 4.8 °F 68% 30.08 in 10.0 mi NW 13.8 mph - N/A   Clear
5:55 PM 13.1 °F -1.4 °F 5.2 °F 71% 30.09 in 10.0 mi NW 12.7 mph 20.7 mph N/A   Clear
6:15 PM 13.1 °F -0.7 °F 6.8 °F 76% 30.09 in 10.0 mi NW 11.5 mph 19.6 mph N/A   Clear
6:35 PM 13.1 °F -1.4 °F 6.6 °F 75% 30.08 in 10.0 mi NW 12.7 mph - N/A   Scattered Clouds
6:55 PM 12.2 °F -1.8 °F 5.0 °F 73% 30.10 in 10.0 mi NW 11.5 mph 18.4 mph N/A   Scattered Clouds
7:15 PM 11.7 °F -3.2 °F 4.1 °F 72% 30.12 in 10.0 mi NW 12.7 mph 18.4 mph N/A   Scattered Clouds
7:35 PM 11.1 °F -2.4 °F 3.9 °F 73% 30.11 in 10.0 mi NW 10.4 mph - N/A   Clear
7:55 PM 10.8 °F -4.3 °F 3.4 °F 72% 30.12 in 10.0 mi NW 12.7 mph 18.4 mph N/A   Clear
8:15 PM 10.2 °F -3.5 °F 3.9 °F 76% 30.12 in 10.0 mi NW 10.4 mph - N/A   Clear
8:35 PM 10.2 °F -3.5 °F 4.1 °F 76% 30.12 in 10.0 mi NW 10.4 mph - N/A   Clear
8:55 PM 9.9 °F -6.1 °F 3.4 °F 75% 30.12 in 10.0 mi NNW 13.8 mph - N/A   Clear
9:15 PM 9.7 °F -5.0 °F 3.4 °F 76% 30.12 in 10.0 mi NW 11.5 mph 17.3 mph N/A   Clear
9:35 PM 9.3 °F -4.6 °F 3.7 °F 78% 30.12 in 10.0 mi NW 10.4 mph - N/A   Clear
9:55 PM 9.3 °F -4.6 °F 3.6 °F 77% 30.12 in 10.0 mi NNW 10.4 mph - N/A   Clear
10:15 PM 9.1 °F -7.0 °F 3.4 °F 77% 30.12 in 10.0 mi NNW 13.8 mph - N/A   Clear
10:35 PM 8.8 °F -6.8 °F 2.7 °F 76% 30.11 in 10.0 mi NNW 12.7 mph - N/A   Clear
10:55 PM 8.6 °F -4.7 °F 3.0 °F 78% 30.12 in 10.0 mi NNW 9.2 mph - N/A   Clear
11:15 PM 8.4 °F -3.9 °F 2.8 °F 78% 30.10 in 10.0 mi NNW 8.1 mph - N/A   Clear
11:35 PM 8.2 °F -3.0 °F 2.8 °F 79% 30.10 in 10.0 mi NNW 6.9 mph - N/A   Mostly Cloudy
11:55 PM 8.6 °F -2.6 °F 3.7 °F 81% 30.11 in 10.0 mi NNW 6.9 mph - N/A   Overcast